createdAt,value
2022-11-05T00:02:19.683Z,6.66
2022-11-05T00:05:06.383Z,6.68
2022-11-05T00:07:54.086Z,6.66
2022-11-05T00:10:21.545Z,6.67
2022-11-05T00:13:07.565Z,6.68
2022-11-05T00:15:52.861Z,6.68
2022-11-05T00:18:19.600Z,6.63
2022-11-05T00:20:47.520Z,6.57
2022-11-05T00:23:32.647Z,6.48
2022-11-05T00:25:59.869Z,6.45
2022-11-05T00:28:27.177Z,6.45
2022-11-05T00:30:54.232Z,6.48
2022-11-05T00:33:21.035Z,6.50
2022-11-05T00:35:49.654Z,6.54
2022-11-05T00:38:16.131Z,6.57
2022-11-05T00:40:43.990Z,6.64
2022-11-05T00:43:29.315Z,6.70
2022-11-05T00:45:55.851Z,6.75
2022-11-05T00:48:41.041Z,6.77
2022-11-05T00:51:09.149Z,6.80
2022-11-05T00:53:35.971Z,6.85
2022-11-05T00:56:02.577Z,6.83
2022-11-05T00:58:29.671Z,6.81
2022-11-05T01:00:56.812Z,6.79
2022-11-05T01:03:26.168Z,6.78
2022-11-05T01:05:53.640Z,6.79
2022-11-05T01:08:22.483Z,6.82
2022-11-05T01:10:50.785Z,6.84
2022-11-05T01:13:18.712Z,6.88
2022-11-05T01:15:46.197Z,6.90
2022-11-05T01:18:13.085Z,6.93
2022-11-05T01:20:39.863Z,6.96
2022-11-05T01:23:13.002Z,7.01
2022-11-05T01:25:41.912Z,7.00
2022-11-05T01:28:09.670Z,6.99
2022-11-05T01:30:36.460Z,6.96
2022-11-05T01:33:03.489Z,6.96
2022-11-05T01:35:30.067Z,6.94
2022-11-05T01:37:56.623Z,6.93
2022-11-05T01:40:23.693Z,6.91
2022-11-05T01:42:51.550Z,6.91
2022-11-05T01:45:19.256Z,6.91
2022-11-05T01:47:52.373Z,6.88
2022-11-05T01:50:25.710Z,6.88
2022-11-05T01:52:54.180Z,6.87
2022-11-05T01:55:24.437Z,6.88
2022-11-05T01:57:53.915Z,6.88
2022-11-05T02:00:20.433Z,6.89
2022-11-05T02:02:47.442Z,6.89
2022-11-05T02:05:14.975Z,6.90
2022-11-05T02:07:43.791Z,6.92
2022-11-05T02:10:13.647Z,6.89
2022-11-05T02:12:41.402Z,6.87
2022-11-05T02:15:12.167Z,6.83
2022-11-05T02:17:44.629Z,6.83
2022-11-05T02:20:26.192Z,6.87
2022-11-05T02:23:07.919Z,6.92
2022-11-05T02:25:53.278Z,6.94
2022-11-05T02:28:40.841Z,6.96
2022-11-05T02:31:11.414Z,6.99
2022-11-05T02:33:41.676Z,7.00
2022-11-05T02:36:26.703Z,7.03
2022-11-05T02:38:56.994Z,7.07
2022-11-05T02:41:25.643Z,7.09
2022-11-05T02:44:03.136Z,7.11
2022-11-05T02:46:37.617Z,7.12
2022-11-05T02:49:08.757Z,7.14
2022-11-05T02:51:38.988Z,7.16
2022-11-05T02:54:09.585Z,7.17
2022-11-05T02:56:38.847Z,7.16
2022-11-05T02:59:05.358Z,7.20
2022-11-05T03:01:34.570Z,7.23
2022-11-05T03:04:03.242Z,7.24
2022-11-05T03:06:46.536Z,7.24
2022-11-05T03:09:25.705Z,7.23
2022-11-05T03:11:58.246Z,7.22
2022-11-05T03:14:28.281Z,7.22
2022-11-05T03:17:00.047Z,7.23
2022-11-05T03:19:32.559Z,7.26
2022-11-05T03:22:02.708Z,7.26
2022-11-05T03:24:31.841Z,7.22
2022-11-05T03:27:00.723Z,7.18
2022-11-05T03:29:30.248Z,7.14
2022-11-05T03:31:59.736Z,7.11
2022-11-05T03:34:29.264Z,7.14
2022-11-05T03:36:57.309Z,7.12
2022-11-05T03:39:29.502Z,7.12
2022-11-05T03:41:57.481Z,7.15
2022-11-05T03:44:26.486Z,7.16
2022-11-05T03:46:55.224Z,7.20
2022-11-05T03:49:25.252Z,7.25
2022-11-05T03:51:55.525Z,7.26
2022-11-05T03:54:22.511Z,7.28
2022-11-05T03:56:53.970Z,7.27
2022-11-05T03:59:21.142Z,7.29
2022-11-05T04:01:47.869Z,7.30
2022-11-05T04:04:14.517Z,7.30
2022-11-05T04:07:00.949Z,7.31
2022-11-05T04:09:46.141Z,7.29
2022-11-05T04:12:31.030Z,7.29
2022-11-05T04:14:57.577Z,7.29
2022-11-05T04:17:24.173Z,7.31
2022-11-05T04:20:25.869Z,7.31
2022-11-05T04:23:18.060Z,7.32
2022-11-05T04:25:44.789Z,7.30
2022-11-05T04:28:11.343Z,7.28
2022-11-05T04:30:37.882Z,7.28
2022-11-05T04:33:05.346Z,7.27
2022-11-05T04:35:33.311Z,7.29
2022-11-05T04:38:01.922Z,7.31
2022-11-05T04:40:28.523Z,7.31
2022-11-05T04:42:55.727Z,7.34
2022-11-05T04:45:23.312Z,7.37
2022-11-05T04:47:52.815Z,7.37
2022-11-05T04:50:19.597Z,7.37
2022-11-05T04:52:46.177Z,7.36
2022-11-05T04:55:14.302Z,7.34
2022-11-05T04:57:40.838Z,7.32
2022-11-05T05:00:08.524Z,7.31
2022-11-05T05:02:36.319Z,7.34
2022-11-05T05:05:02.960Z,7.35
2022-11-05T05:07:29.636Z,7.37
2022-11-05T05:09:56.315Z,7.37
2022-11-05T05:12:24.243Z,7.38
2022-11-05T05:14:50.817Z,7.38
2022-11-05T05:17:17.338Z,7.40
2022-11-05T05:20:02.556Z,7.42
2022-11-05T05:22:29.097Z,7.45
2022-11-05T05:24:56.722Z,7.47
2022-11-05T05:27:25.998Z,7.50
2022-11-05T05:29:52.471Z,7.52
2022-11-05T05:32:19.008Z,7.57
2022-11-05T05:34:45.479Z,7.59
2022-11-05T05:37:12.157Z,7.63
2022-11-05T05:39:38.713Z,7.66
2022-11-05T05:42:05.283Z,7.68
2022-11-05T05:44:33.194Z,7.67
2022-11-05T05:46:59.660Z,7.68
2022-11-05T05:49:26.120Z,7.69
2022-11-05T05:51:52.643Z,7.71
2022-11-05T05:54:19.236Z,7.70
2022-11-05T05:56:45.900Z,7.70
2022-11-05T05:59:12.487Z,7.69
2022-11-05T06:01:40.825Z,7.69
2022-11-05T06:04:09.002Z,7.69
2022-11-05T06:06:35.867Z,7.68
2022-11-05T06:09:02.381Z,7.67
2022-11-05T06:11:29.058Z,7.68
2022-11-05T06:13:55.761Z,7.69
2022-11-05T06:16:22.314Z,7.70
2022-11-05T06:18:50.240Z,7.70
2022-11-05T06:21:17.864Z,7.70
2022-11-05T06:23:45.222Z,7.69
2022-11-05T06:26:12.762Z,7.72
2022-11-05T06:28:39.331Z,7.72
2022-11-05T06:31:06.021Z,7.77
2022-11-05T06:33:32.772Z,7.79
2022-11-05T06:36:01.404Z,7.84
2022-11-05T06:38:29.231Z,7.86
2022-11-05T06:40:57.839Z,7.86
2022-11-05T06:43:24.347Z,7.88
2022-11-05T06:45:50.836Z,7.90
2022-11-05T06:48:17.320Z,7.94
2022-11-05T06:50:44.191Z,7.95
2022-11-05T06:53:12.829Z,7.95
2022-11-05T06:55:39.581Z,7.99
2022-11-05T06:58:06.073Z,7.97
2022-11-05T07:00:32.850Z,7.97
2022-11-05T07:03:03.329Z,7.99
2022-11-05T07:05:30.816Z,7.96
2022-11-05T07:07:57.295Z,7.96
2022-11-05T07:10:25.221Z,7.93
2022-11-05T07:12:54.829Z,7.94
2022-11-05T07:15:21.571Z,8.00
2022-11-05T07:17:48.184Z,8.04
2022-11-05T07:20:15.674Z,8.09
2022-11-05T07:22:42.121Z,8.12
2022-11-05T07:25:09.030Z,8.18
2022-11-05T07:27:40.319Z,8.23
2022-11-05T07:30:08.076Z,8.25
2022-11-05T07:32:37.068Z,8.28
2022-11-05T07:35:03.613Z,8.30
2022-11-05T07:37:30.055Z,8.32
2022-11-05T07:39:56.598Z,8.36
2022-11-05T07:42:23.026Z,8.41
2022-11-05T07:44:50.884Z,8.43
2022-11-05T07:47:17.351Z,8.46
2022-11-05T07:49:43.804Z,8.49
2022-11-05T07:52:10.491Z,8.54
2022-11-05T07:54:36.958Z,8.58
2022-11-05T07:57:03.410Z,8.62
2022-11-05T07:59:29.993Z,8.64
2022-11-05T08:01:58.125Z,8.66
2022-11-05T08:04:24.898Z,8.69
2022-11-05T08:06:51.384Z,8.71
2022-11-05T08:09:17.846Z,8.72
2022-11-05T08:11:44.314Z,8.78
2022-11-05T08:14:10.826Z,8.82
2022-11-05T08:16:37.487Z,8.85
2022-11-05T08:19:05.413Z,8.85
2022-11-05T08:21:31.888Z,8.83
2022-11-05T08:23:58.393Z,8.88
2022-11-05T08:26:24.927Z,8.93
2022-11-05T08:28:51.463Z,8.99
2022-11-05T08:31:18.203Z,9.02
2022-11-05T08:33:44.690Z,9.03
2022-11-05T08:36:12.695Z,9.07
2022-11-05T08:38:39.189Z,9.09
2022-11-05T08:41:05.852Z,9.09
2022-11-05T08:43:32.344Z,9.14
2022-11-05T08:45:59.696Z,9.14
2022-11-05T08:48:26.298Z,9.14
2022-11-05T08:50:52.875Z,9.16
2022-11-05T08:53:20.832Z,9.20
2022-11-05T08:55:49.949Z,9.26
2022-11-05T08:58:16.909Z,9.33
2022-11-05T09:00:44.548Z,9.39
2022-11-05T09:03:11.745Z,9.42
2022-11-05T09:05:39.447Z,9.48
2022-11-05T09:08:06.311Z,9.50
2022-11-05T09:10:34.398Z,9.49
2022-11-05T09:13:01.422Z,9.48
2022-11-05T09:15:28.071Z,9.47
2022-11-05T09:17:55.160Z,9.46
2022-11-05T09:20:22.092Z,9.51
2022-11-05T09:22:49.075Z,9.49
2022-11-05T09:25:15.937Z,9.45
2022-11-05T09:27:43.869Z,9.49
2022-11-05T09:30:11.157Z,9.59
2022-11-05T09:32:37.719Z,9.65
2022-11-05T09:35:04.721Z,9.68
2022-11-05T09:37:31.277Z,9.72
2022-11-05T09:39:57.749Z,9.75
2022-11-05T09:42:26.061Z,9.77
2022-11-05T09:44:59.268Z,9.80
2022-11-05T09:47:27.958Z,9.85
2022-11-05T09:49:55.543Z,9.91
2022-11-05T09:52:23.542Z,9.96
2022-11-05T09:54:50.429Z,9.97
2022-11-05T09:57:18.966Z,9.95
2022-11-05T09:59:48.345Z,9.91
2022-11-05T10:02:18.269Z,9.89
2022-11-05T10:04:46.961Z,9.91
2022-11-05T10:07:15.977Z,9.98
2022-11-05T10:09:46.362Z,10.01
2022-11-05T10:12:16.636Z,10.02
2022-11-05T10:14:45.601Z,10.01
2022-11-05T10:17:15.600Z,10.06
2022-11-05T10:19:45.910Z,10.10
2022-11-05T10:22:13.703Z,10.14
2022-11-05T10:24:42.520Z,10.19
2022-11-05T10:27:13.375Z,10.26
2022-11-05T10:29:42.596Z,10.33
2022-11-05T10:32:10.605Z,10.40
2022-11-05T10:34:43.500Z,10.49
2022-11-05T10:37:11.395Z,10.54
2022-11-05T10:39:38.057Z,10.58
2022-11-05T10:42:21.952Z,10.60
2022-11-05T10:44:53.320Z,10.63
2022-11-05T10:47:35.516Z,10.59
2022-11-05T10:50:04.056Z,10.53
2022-11-05T10:52:34.374Z,10.50
2022-11-05T10:55:02.698Z,10.48
2022-11-05T10:57:31.402Z,10.48
2022-11-05T11:00:19.573Z,10.51
2022-11-05T11:02:47.069Z,10.48
2022-11-05T11:05:19.246Z,10.43
2022-11-05T11:07:52.897Z,10.39
2022-11-05T11:10:21.273Z,10.36
2022-11-05T11:12:49.732Z,10.35
2022-11-05T11:15:21.400Z,10.36
2022-11-05T11:17:47.895Z,10.41
2022-11-05T11:20:20.458Z,10.48
2022-11-05T11:22:58.436Z,10.59
2022-11-05T11:25:26.297Z,10.68
2022-11-05T11:27:53.121Z,10.73
2022-11-05T11:30:20.254Z,10.77
2022-11-05T11:32:47.820Z,10.80
2022-11-05T11:35:20.181Z,10.74
2022-11-05T11:37:47.528Z,10.71
2022-11-05T11:40:16.951Z,10.66
2022-11-05T11:42:45.755Z,10.61
2022-11-05T11:45:15.674Z,10.63
2022-11-05T11:47:43.334Z,10.69
2022-11-05T11:50:31.564Z,10.71
2022-11-05T11:53:15.692Z,10.70
2022-11-05T11:55:56.613Z,10.71
2022-11-05T11:58:23.789Z,10.70
2022-11-05T12:00:53.684Z,10.70
2022-11-05T12:03:25.409Z,10.67
2022-11-05T12:05:55.724Z,10.68
2022-11-05T12:08:35.136Z,10.65
2022-11-05T12:11:05.622Z,10.66
2022-11-05T12:13:40.177Z,10.59
2022-11-05T12:16:11.660Z,10.52
2022-11-05T12:18:42.876Z,10.51
2022-11-05T12:21:14.268Z,10.51
2022-11-05T12:23:52.461Z,10.53
2022-11-05T12:26:24.545Z,10.52
2022-11-05T12:29:18.019Z,10.56
2022-11-05T12:31:48.492Z,10.62
2022-11-05T12:34:25.760Z,10.67
2022-11-05T12:37:01.147Z,10.64
2022-11-05T12:39:33.981Z,10.59
2022-11-05T12:42:02.698Z,10.59
2022-11-05T12:44:47.084Z,10.59
2022-11-05T12:47:20.500Z,10.60
2022-11-05T12:50:02.013Z,10.65
2022-11-05T12:52:38.667Z,10.70
2022-11-05T12:55:08.068Z,10.80
2022-11-05T12:57:38.772Z,10.95
2022-11-05T13:00:07.260Z,11.03
2022-11-05T13:02:37.671Z,11.06
2022-11-05T13:05:05.202Z,11.07
2022-11-05T13:07:33.255Z,11.06
2022-11-05T13:10:03.185Z,10.99
2022-11-05T13:12:32.803Z,10.89
2022-11-05T13:15:02.827Z,10.74
2022-11-05T13:17:33.218Z,10.69
2022-11-05T13:20:03.277Z,10.65
2022-11-05T13:22:33.628Z,10.62
2022-11-05T13:25:02.845Z,10.55
2022-11-05T13:27:41.109Z,10.51
2022-11-05T13:30:13.415Z,10.50
2022-11-05T13:32:42.121Z,10.47
2022-11-05T13:35:14.728Z,10.48
2022-11-05T13:38:02.393Z,10.51
2022-11-05T13:40:32.254Z,10.55
2022-11-05T13:43:13.568Z,10.58
2022-11-05T13:45:49.010Z,10.58
2022-11-05T13:48:48.853Z,10.61
2022-11-05T13:51:38.632Z,10.64
2022-11-05T13:54:23.683Z,10.65
2022-11-05T13:56:56.874Z,10.65
2022-11-05T13:59:44.599Z,10.67
2022-11-05T14:02:15.968Z,10.67
2022-11-05T14:04:45.640Z,10.65
2022-11-05T14:07:15.663Z,10.65
2022-11-05T14:09:43.059Z,10.65
2022-11-05T14:12:18.540Z,10.56
2022-11-05T14:14:47.181Z,10.51
2022-11-05T14:17:15.735Z,10.43
2022-11-05T14:20:06.450Z,10.42
2022-11-05T14:22:37.886Z,10.40
2022-11-05T14:25:19.293Z,10.37
2022-11-05T14:27:46.847Z,10.33
2022-11-05T14:30:31.964Z,10.31
2022-11-05T14:33:04.960Z,10.32
2022-11-05T14:35:35.932Z,10.32
2022-11-05T14:38:02.434Z,10.27
2022-11-05T14:40:32.104Z,10.23
2022-11-05T14:43:01.087Z,10.20
2022-11-05T14:45:31.173Z,10.18
2022-11-05T14:47:58.840Z,10.21
2022-11-05T14:50:35.707Z,10.23
2022-11-05T14:53:06.698Z,10.26
2022-11-05T14:55:34.765Z,10.28
2022-11-05T14:58:16.097Z,10.28
2022-11-05T15:00:44.600Z,10.22
2022-11-05T15:03:29.901Z,10.15
2022-11-05T15:06:05.336Z,10.14
2022-11-05T15:08:35.357Z,10.11
2022-11-05T15:11:09.269Z,10.05
2022-11-05T15:13:38.472Z,10.01
2022-11-05T15:16:05.884Z,9.95
2022-11-05T15:18:34.017Z,9.89
2022-11-05T15:21:02.148Z,9.86
2022-11-05T15:23:36.369Z,9.82
2022-11-05T15:26:05.684Z,9.83
2022-11-05T15:28:35.775Z,9.79
2022-11-05T15:31:03.754Z,9.77
2022-11-05T15:33:31.298Z,9.79
2022-11-05T15:36:08.369Z,9.79
2022-11-05T15:38:36.364Z,9.81
2022-11-05T15:41:04.056Z,9.83
2022-11-05T15:43:30.940Z,9.85
2022-11-05T15:46:07.593Z,9.87
2022-11-05T15:48:34.697Z,9.87
2022-11-05T15:51:01.383Z,9.87
2022-11-05T15:54:15.719Z,9.88
2022-11-05T15:56:23.101Z,9.91
2022-11-05T15:58:50.626Z,9.93
2022-11-05T16:01:21.432Z,9.92
2022-11-05T16:03:48.227Z,9.92
2022-11-05T16:06:14.672Z,9.92
2022-11-05T16:08:45.892Z,9.90
2022-11-05T16:11:20.003Z,9.91
2022-11-05T16:13:47.848Z,9.91
2022-11-05T16:16:22.896Z,9.92
2022-11-05T16:18:49.406Z,9.90
2022-11-05T16:21:22.475Z,9.90
2022-11-05T16:23:54.126Z,9.88
2022-11-05T16:27:00.709Z,9.85
2022-11-05T16:29:23.154Z,9.82
2022-11-05T16:31:50.224Z,9.77
2022-11-05T16:34:24.699Z,9.73
2022-11-05T16:36:53.601Z,9.65
2022-11-05T16:39:20.077Z,9.60
2022-11-05T16:41:48.384Z,9.57
2022-11-05T16:44:15.075Z,9.58
2022-11-05T16:46:44.358Z,9.59
2022-11-05T16:49:11.905Z,9.58
2022-11-05T16:51:38.645Z,9.57
2022-11-05T16:54:05.332Z,9.56
2022-11-05T16:56:31.956Z,9.51
2022-11-05T16:58:58.416Z,9.44
2022-11-05T17:01:25.095Z,9.41
2022-11-05T17:03:53.504Z,9.41
2022-11-05T17:06:20.841Z,9.43
2022-11-05T17:08:48.117Z,9.44
2022-11-05T17:11:15.240Z,9.46
2022-11-05T17:13:42.495Z,9.47
2022-11-05T17:16:10.133Z,9.43
2022-11-05T17:18:36.885Z,9.38
2022-11-05T17:21:05.521Z,9.34
2022-11-05T17:23:32.607Z,9.29
2022-11-05T17:26:01.172Z,9.29
2022-11-05T17:28:29.054Z,9.29
2022-11-05T17:30:56.369Z,9.30
2022-11-05T17:33:23.396Z,9.34
2022-11-05T17:35:50.611Z,9.36
2022-11-05T17:38:19.008Z,9.35
2022-11-05T17:40:45.537Z,9.35
2022-11-05T17:43:12.274Z,9.33
2022-11-05T17:45:42.761Z,9.33
2022-11-05T17:48:10.402Z,9.33
2022-11-05T17:50:40.186Z,9.33
2022-11-05T17:53:06.732Z,9.38
2022-11-05T17:55:34.624Z,9.41
2022-11-05T17:58:01.388Z,9.40
2022-11-05T18:00:28.405Z,9.41
2022-11-05T18:02:54.960Z,9.43
2022-11-05T18:05:22.048Z,9.48
2022-11-05T18:07:48.963Z,9.48
2022-11-05T18:10:15.751Z,9.48
2022-11-05T18:12:43.892Z,9.45
2022-11-05T18:15:10.850Z,9.46
2022-11-05T18:17:37.859Z,9.48
2022-11-05T18:20:07.143Z,9.48
2022-11-05T18:22:33.864Z,9.48
2022-11-05T18:25:00.413Z,9.48
2022-11-05T18:27:27.744Z,9.45
2022-11-05T18:29:56.787Z,9.43
2022-11-05T18:32:23.349Z,9.41
2022-11-05T18:34:49.857Z,9.43
2022-11-05T18:37:16.671Z,9.43
2022-11-05T18:39:43.259Z,9.39
2022-11-05T18:42:09.861Z,9.38
2022-11-05T18:44:39.202Z,9.36
2022-11-05T18:47:07.467Z,9.32
2022-11-05T18:49:33.977Z,9.29
2022-11-05T18:52:00.545Z,9.25
2022-11-05T18:54:27.093Z,9.23
2022-11-05T18:56:53.619Z,9.21
2022-11-05T18:59:36.887Z,9.20
2022-11-05T19:02:04.933Z,9.21
2022-11-05T19:04:34.593Z,9.22
2022-11-05T19:07:04.858Z,9.23
2022-11-05T19:09:32.534Z,9.26
2022-11-05T19:11:59.013Z,9.27
2022-11-05T19:14:25.534Z,9.28
2022-11-05T19:16:52.152Z,9.26
2022-11-05T19:19:18.764Z,9.24
2022-11-05T19:21:46.831Z,9.17
2022-11-05T19:24:17.051Z,9.12
2022-11-05T19:26:44.196Z,9.08
2022-11-05T19:29:10.670Z,9.04
2022-11-05T19:31:37.171Z,9.02
2022-11-05T19:34:05.359Z,9.00
2022-11-05T19:36:32.295Z,9.01
2022-11-05T19:39:01.348Z,9.00
2022-11-05T19:41:28.011Z,9.00
2022-11-05T19:43:55.123Z,8.99
2022-11-05T19:46:22.719Z,8.99
2022-11-05T19:48:49.415Z,9.00
2022-11-05T19:51:16.767Z,9.02
2022-11-05T19:53:43.340Z,9.05
2022-11-05T19:56:13.571Z,9.04
2022-11-05T19:58:40.431Z,9.05
2022-11-05T20:01:06.963Z,9.06
2022-11-05T20:03:33.517Z,9.08
2022-11-05T20:06:03.783Z,9.10
2022-11-05T20:08:30.278Z,9.11
2022-11-05T20:10:57.031Z,9.12
2022-11-05T20:13:24.837Z,9.14
2022-11-05T20:15:51.392Z,9.17
2022-11-05T20:18:17.880Z,9.19
2022-11-05T20:20:44.595Z,9.14
2022-11-05T20:23:11.191Z,9.08
2022-11-05T20:25:37.678Z,9.03
2022-11-05T20:28:04.428Z,8.97
2022-11-05T20:30:32.268Z,8.92
2022-11-05T20:32:58.811Z,8.89
2022-11-05T20:35:25.296Z,8.82
2022-11-05T20:37:54.212Z,8.74
2022-11-05T20:40:21.010Z,8.70
2022-11-05T20:42:47.464Z,8.68
2022-11-05T20:45:13.948Z,8.69
2022-11-05T20:47:41.820Z,8.68
2022-11-05T20:50:09.016Z,8.72
2022-11-05T20:52:35.552Z,8.75
2022-11-05T20:55:02.291Z,8.79
2022-11-05T20:57:28.843Z,8.84
2022-11-05T20:59:55.384Z,8.89
2022-11-05T21:02:22.014Z,8.92
2022-11-05T21:04:50.110Z,8.92
2022-11-05T21:07:16.578Z,8.89
2022-11-05T21:09:43.265Z,8.84
2022-11-05T21:12:12.391Z,8.81
2022-11-05T21:14:39.430Z,8.79
2022-11-05T21:17:06.388Z,8.79
2022-11-05T21:19:33.423Z,8.75
2022-11-05T21:22:01.567Z,8.72
2022-11-05T21:24:28.080Z,8.69
2022-11-05T21:26:54.637Z,8.64
2022-11-05T21:29:21.115Z,8.60
2022-11-05T21:31:47.721Z,8.56
2022-11-05T21:34:14.580Z,8.52
2022-11-05T21:36:41.286Z,8.49
2022-11-05T21:39:13.518Z,8.48
2022-11-05T21:41:40.509Z,8.46
2022-11-05T21:44:06.953Z,8.48
2022-11-05T21:46:33.459Z,8.49
2022-11-05T21:48:59.909Z,8.55
2022-11-05T21:51:45.094Z,8.58
2022-11-05T21:54:31.622Z,8.58
2022-11-05T21:57:16.721Z,8.52
2022-11-05T21:59:49.004Z,8.48
2022-11-05T22:02:16.572Z,8.47
2022-11-05T22:04:44.743Z,8.46
2022-11-05T22:07:12.915Z,8.47
2022-11-05T22:09:41.031Z,8.45
2022-11-05T22:12:08.223Z,8.43
2022-11-05T22:14:34.751Z,8.38
2022-11-05T22:17:01.256Z,8.35
2022-11-05T22:19:27.783Z,8.30
2022-11-05T22:21:54.312Z,8.29
2022-11-05T22:24:20.809Z,8.31
2022-11-05T22:26:48.703Z,8.33
2022-11-05T22:29:15.664Z,8.33
2022-11-05T22:31:42.252Z,8.31
2022-11-05T22:34:09.776Z,8.29
2022-11-05T22:36:36.272Z,8.27
2022-11-05T22:39:03.375Z,8.23
2022-11-05T22:41:30.270Z,8.13
2022-11-05T22:43:58.398Z,8.03
2022-11-05T22:46:26.171Z,7.89
2022-11-05T22:48:53.404Z,7.76
2022-11-05T22:51:20.894Z,7.64
2022-11-05T22:53:47.980Z,7.54
2022-11-05T22:56:17.181Z,7.47
2022-11-05T22:58:44.048Z,7.43
2022-11-05T23:01:12.790Z,7.44
2022-11-05T23:03:40.281Z,7.41
2022-11-05T23:06:27.652Z,7.39
2022-11-05T23:09:13.045Z,7.38
2022-11-05T23:11:40.532Z,7.35
2022-11-05T23:14:07.816Z,7.34
2022-11-05T23:16:54.711Z,7.35
2022-11-05T23:19:40.203Z,7.40
2022-11-05T23:22:29.215Z,7.35
2022-11-05T23:24:55.693Z,7.22
2022-11-05T23:27:22.196Z,7.09
2022-11-05T23:29:48.684Z,6.98
2022-11-05T23:32:25.203Z,6.88
2022-11-05T23:34:52.349Z,6.82
2022-11-05T23:37:37.629Z,6.79
2022-11-05T23:40:04.583Z,6.74
2022-11-05T23:42:49.829Z,6.66
2022-11-05T23:45:34.968Z,6.56
2022-11-05T23:48:16.318Z,6.44
2022-11-05T23:50:43.941Z,6.33
2022-11-05T23:53:10.486Z,6.27
2022-11-05T23:55:37.039Z,6.23
2022-11-05T23:58:03.847Z,6.23
